sensor_id;sensor_type;location;lat;lon;timestamp;P1;durP1;ratioP1;P2;durP2;ratioP2
73840;SDS011;62183;49.006;12.102;2022-11-06T00:00:21;16.90;;;10.10;;
73840;SDS011;62183;49.006;12.102;2022-11-06T00:02:46;15.35;;;9.85;;
73840;SDS011;62183;49.006;12.102;2022-11-06T00:05:11;15.43;;;10.33;;
73840;SDS011;62183;49.006;12.102;2022-11-06T00:07:37;16.37;;;9.40;;
73840;SDS011;62183;49.006;12.102;2022-11-06T00:10:02;16.80;;;9.87;;
73840;SDS011;62183;49.006;12.102;2022-11-06T00:12:27;15.77;;;9.50;;
73840;SDS011;62183;49.006;12.102;2022-11-06T00:14:52;16.10;;;9.20;;
73840;SDS011;62183;49.006;12.102;2022-11-06T00:17:17;17.33;;;10.10;;
73840;SDS011;62183;49.006;12.102;2022-11-06T00:19:43;20.33;;;10.67;;
73840;SDS011;62183;49.006;12.102;2022-11-06T00:22:08;20.27;;;10.63;;
73840;SDS011;62183;49.006;12.102;2022-11-06T00:24:33;19.10;;;10.73;;
73840;SDS011;62183;49.006;12.102;2022-11-06T00:26:58;21.43;;;10.93;;
73840;SDS011;62183;49.006;12.102;2022-11-06T00:29:23;30.60;;;12.70;;
73840;SDS011;62183;49.006;12.102;2022-11-06T00:31:49;25.67;;;11.40;;
73840;SDS011;62183;49.006;12.102;2022-11-06T00:34:14;26.30;;;12.68;;
73840;SDS011;62183;49.006;12.102;2022-11-06T00:36:39;23.60;;;12.43;;
73840;SDS011;62183;49.006;12.102;2022-11-06T00:39:04;29.50;;;11.93;;
73840;SDS011;62183;49.006;12.102;2022-11-06T00:41:30;25.30;;;11.82;;
73840;SDS011;62183;49.006;12.102;2022-11-06T00:43:56;20.67;;;10.73;;
73840;SDS011;62183;49.006;12.102;2022-11-06T00:46:22;23.38;;;11.18;;
73840;SDS011;62183;49.006;12.102;2022-11-06T00:48:47;24.60;;;10.60;;
73840;SDS011;62183;49.006;12.102;2022-11-06T00:51:13;21.10;;;10.47;;
73840;SDS011;62183;49.006;12.102;2022-11-06T00:53:39;24.38;;;12.75;;
73840;SDS011;62183;49.006;12.102;2022-11-06T00:56:12;29.20;;;13.45;;
73840;SDS011;62183;49.006;12.102;2022-11-06T00:58:37;27.20;;;13.02;;
73840;SDS011;62183;49.006;12.102;2022-11-06T01:03:31;26.48;;;10.75;;
73840;SDS011;62183;49.006;12.102;2022-11-06T01:06:02;25.87;;;11.83;;
73840;SDS011;62183;49.006;12.102;2022-11-06T01:08:28;29.17;;;11.50;;
73840;SDS011;62183;49.006;12.102;2022-11-06T01:10:53;29.13;;;12.77;;
73840;SDS011;62183;49.006;12.102;2022-11-06T01:13:18;37.57;;;13.90;;
73840;SDS011;62183;49.006;12.102;2022-11-06T01:15:43;47.77;;;14.07;;
73840;SDS011;62183;49.006;12.102;2022-11-06T01:18:08;27.40;;;8.73;;
73840;SDS011;62183;49.006;12.102;2022-11-06T01:20:35;24.77;;;9.23;;
73840;SDS011;62183;49.006;12.102;2022-11-06T01:23:01;35.03;;;12.68;;
73840;SDS011;62183;49.006;12.102;2022-11-06T01:25:26;26.00;;;10.47;;
73840;SDS011;62183;49.006;12.102;2022-11-06T01:27:51;29.57;;;11.17;;
73840;SDS011;62183;49.006;12.102;2022-11-06T01:30:16;67.70;;;14.80;;
73840;SDS011;62183;49.006;12.102;2022-11-06T01:32:41;49.87;;;14.37;;
73840;SDS011;62183;49.006;12.102;2022-11-06T01:35:07;97.77;;;14.87;;
73840;SDS011;62183;49.006;12.102;2022-11-06T01:37:32;87.95;;;15.63;;
73840;SDS011;62183;49.006;12.102;2022-11-06T01:39:57;50.53;;;11.10;;
73840;SDS011;62183;49.006;12.102;2022-11-06T01:42:22;36.63;;;9.60;;
73840;SDS011;62183;49.006;12.102;2022-11-06T01:47:31;44.88;;;9.80;;
73840;SDS011;62183;49.006;12.102;2022-11-06T01:49:58;86.10;;;12.50;;
73840;SDS011;62183;49.006;12.102;2022-11-06T01:52:24;52.22;;;11.50;;
73840;SDS011;62183;49.006;12.102;2022-11-06T01:54:51;78.47;;;13.15;;
73840;SDS011;62183;49.006;12.102;2022-11-06T01:57:17;66.00;;;12.00;;
73840;SDS011;62183;49.006;12.102;2022-11-06T01:59:43;42.05;;;10.23;;
73840;SDS011;62183;49.006;12.102;2022-11-06T02:02:09;51.92;;;10.13;;
73840;SDS011;62183;49.006;12.102;2022-11-06T02:04:39;45.58;;;10.73;;
73840;SDS011;62183;49.006;12.102;2022-11-06T02:07:05;91.30;;;12.43;;
73840;SDS011;62183;49.006;12.102;2022-11-06T02:09:30;54.15;;;10.05;;
73840;SDS011;62183;49.006;12.102;2022-11-06T02:14:33;70.68;;;13.23;;
73840;SDS011;62183;49.006;12.102;2022-11-06T02:19:48;60.63;;;11.80;;
73840;SDS011;62183;49.006;12.102;2022-11-06T02:27:31;52.92;;;11.95;;
73840;SDS011;62183;49.006;12.102;2022-11-06T02:30:02;54.25;;;12.18;;
73840;SDS011;62183;49.006;12.102;2022-11-06T02:34:53;30.17;;;8.73;;
73840;SDS011;62183;49.006;12.102;2022-11-06T02:37:20;67.07;;;12.50;;
73840;SDS011;62183;49.006;12.102;2022-11-06T02:39:48;50.28;;;12.20;;
73840;SDS011;62183;49.006;12.102;2022-11-06T02:42:14;63.05;;;13.45;;
73840;SDS011;62183;49.006;12.102;2022-11-06T02:44:40;80.88;;;13.88;;
73840;SDS011;62183;49.006;12.102;2022-11-06T02:47:09;67.78;;;13.00;;
73840;SDS011;62183;49.006;12.102;2022-11-06T02:52:05;77.73;;;14.00;;
73840;SDS011;62183;49.006;12.102;2022-11-06T02:54:33;47.65;;;11.93;;
73840;SDS011;62183;49.006;12.102;2022-11-06T02:57:02;55.30;;;11.57;;
73840;SDS011;62183;49.006;12.102;2022-11-06T03:01:59;68.07;;;15.20;;
73840;SDS011;62183;49.006;12.102;2022-11-06T03:04:28;62.72;;;14.00;;
73840;SDS011;62183;49.006;12.102;2022-11-06T03:07:05;65.32;;;13.77;;
73840;SDS011;62183;49.006;12.102;2022-11-06T03:09:32;63.55;;;14.48;;
73840;SDS011;62183;49.006;12.102;2022-11-06T03:11:59;68.32;;;14.23;;
73840;SDS011;62183;49.006;12.102;2022-11-06T03:14:27;80.00;;;14.35;;
73840;SDS011;62183;49.006;12.102;2022-11-06T03:19:36;63.45;;;14.35;;
73840;SDS011;62183;49.006;12.102;2022-11-06T03:24:30;66.20;;;12.83;;
73840;SDS011;62183;49.006;12.102;2022-11-06T03:26:57;64.30;;;14.52;;
73840;SDS011;62183;49.006;12.102;2022-11-06T03:31:52;84.30;;;15.23;;
73840;SDS011;62183;49.006;12.102;2022-11-06T03:34:22;54.92;;;12.85;;
73840;SDS011;62183;49.006;12.102;2022-11-06T03:36:51;46.17;;;12.15;;
73840;SDS011;62183;49.006;12.102;2022-11-06T03:39:24;47.80;;;12.70;;
73840;SDS011;62183;49.006;12.102;2022-11-06T03:42:02;49.03;;;13.43;;
73840;SDS011;62183;49.006;12.102;2022-11-06T03:44:28;55.90;;;13.82;;
73840;SDS011;62183;49.006;12.102;2022-11-06T03:46:57;37.90;;;11.65;;
73840;SDS011;62183;49.006;12.102;2022-11-06T03:49:28;47.53;;;12.63;;
73840;SDS011;62183;49.006;12.102;2022-11-06T03:51:57;36.88;;;11.77;;
73840;SDS011;62183;49.006;12.102;2022-11-06T03:54:28;62.75;;;12.98;;
73840;SDS011;62183;49.006;12.102;2022-11-06T03:59:20;37.90;;;10.17;;
73840;SDS011;62183;49.006;12.102;2022-11-06T04:01:47;46.08;;;12.27;;
73840;SDS011;62183;49.006;12.102;2022-11-06T04:04:22;45.60;;;10.55;;
73840;SDS011;62183;49.006;12.102;2022-11-06T04:07:07;37.05;;;10.32;;
73840;SDS011;62183;49.006;12.102;2022-11-06T04:09:34;42.50;;;11.23;;
73840;SDS011;62183;49.006;12.102;2022-11-06T04:12:02;58.28;;;13.13;;
73840;SDS011;62183;49.006;12.102;2022-11-06T04:14:28;33.63;;;10.50;;
73840;SDS011;62183;49.006;12.102;2022-11-06T04:16:55;33.50;;;11.38;;
73840;SDS011;62183;49.006;12.102;2022-11-06T04:19:22;24.52;;;9.07;;
73840;SDS011;62183;49.006;12.102;2022-11-06T04:24:26;55.00;;;11.13;;
73840;SDS011;62183;49.006;12.102;2022-11-06T04:27:56;32.33;;;10.20;;
73840;SDS011;62183;49.006;12.102;2022-11-06T04:34:51;40.30;;;11.30;;
73840;SDS011;62183;49.006;12.102;2022-11-06T04:42:27;35.38;;;10.65;;
73840;SDS011;62183;49.006;12.102;2022-11-06T04:45:15;69.32;;;16.10;;
73840;SDS011;62183;49.006;12.102;2022-11-06T04:47:38;34.28;;;11.30;;
73840;SDS011;62183;49.006;12.102;2022-11-06T04:50:04;29.50;;;8.88;;
73840;SDS011;62183;49.006;12.102;2022-11-06T04:52:31;33.17;;;11.18;;
73840;SDS011;62183;49.006;12.102;2022-11-06T04:54:57;50.38;;;12.40;;
73840;SDS011;62183;49.006;12.102;2022-11-06T04:57:22;58.10;;;12.93;;
73840;SDS011;62183;49.006;12.102;2022-11-06T04:59:48;57.53;;;12.80;;
73840;SDS011;62183;49.006;12.102;2022-11-06T05:02:13;26.37;;;10.10;;
73840;SDS011;62183;49.006;12.102;2022-11-06T05:04:38;21.60;;;8.97;;
73840;SDS011;62183;49.006;12.102;2022-11-06T05:07:03;25.77;;;8.83;;
73840;SDS011;62183;49.006;12.102;2022-11-06T05:09:28;21.67;;;8.83;;
73840;SDS011;62183;49.006;12.102;2022-11-06T05:11:54;38.17;;;12.33;;
73840;SDS011;62183;49.006;12.102;2022-11-06T05:14:19;37.17;;;12.07;;
73840;SDS011;62183;49.006;12.102;2022-11-06T05:16:44;33.80;;;11.70;;
73840;SDS011;62183;49.006;12.102;2022-11-06T05:19:09;66.33;;;15.23;;
73840;SDS011;62183;49.006;12.102;2022-11-06T05:21:34;29.57;;;11.03;;
73840;SDS011;62183;49.006;12.102;2022-11-06T05:24:00;25.13;;;10.10;;
73840;SDS011;62183;49.006;12.102;2022-11-06T05:26:25;27.73;;;10.95;;
73840;SDS011;62183;49.006;12.102;2022-11-06T05:28:50;70.27;;;15.33;;
73840;SDS011;62183;49.006;12.102;2022-11-06T05:31:15;33.17;;;10.50;;
73840;SDS011;62183;49.006;12.102;2022-11-06T05:33:40;38.57;;;12.07;;
73840;SDS011;62183;49.006;12.102;2022-11-06T05:36:06;98.20;;;15.30;;
73840;SDS011;62183;49.006;12.102;2022-11-06T05:38:31;58.20;;;13.05;;
73840;SDS011;62183;49.006;12.102;2022-11-06T05:40:57;59.20;;;12.60;;
73840;SDS011;62183;49.006;12.102;2022-11-06T05:43:22;34.58;;;10.38;;
73840;SDS011;62183;49.006;12.102;2022-11-06T05:45:47;60.80;;;10.50;;
73840;SDS011;62183;49.006;12.102;2022-11-06T05:48:12;26.27;;;8.37;;
73840;SDS011;62183;49.006;12.102;2022-11-06T05:50:37;30.20;;;9.37;;
73840;SDS011;62183;49.006;12.102;2022-11-06T05:53:03;41.17;;;9.33;;
73840;SDS011;62183;49.006;12.102;2022-11-06T05:55:28;73.97;;;11.80;;
73840;SDS011;62183;49.006;12.102;2022-11-06T05:57:53;48.90;;;11.23;;
73840;SDS011;62183;49.006;12.102;2022-11-06T06:00:19;25.57;;;9.10;;
73840;SDS011;62183;49.006;12.102;2022-11-06T06:02:44;19.33;;;8.37;;
73840;SDS011;62183;49.006;12.102;2022-11-06T06:05:09;21.87;;;7.40;;
73840;SDS011;62183;49.006;12.102;2022-11-06T06:07:34;47.60;;;11.47;;
73840;SDS011;62183;49.006;12.102;2022-11-06T06:09:59;39.57;;;9.57;;
73840;SDS011;62183;49.006;12.102;2022-11-06T06:12:25;26.30;;;8.25;;
73840;SDS011;62183;49.006;12.102;2022-11-06T06:14:50;34.47;;;10.07;;
73840;SDS011;62183;49.006;12.102;2022-11-06T06:17:15;16.43;;;8.60;;
73840;SDS011;62183;49.006;12.102;2022-11-06T06:19:40;22.13;;;7.43;;
73840;SDS011;62183;49.006;12.102;2022-11-06T06:22:05;17.73;;;6.93;;
73840;SDS011;62183;49.006;12.102;2022-11-06T06:24:30;39.50;;;8.77;;
73840;SDS011;62183;49.006;12.102;2022-11-06T06:26:56;27.40;;;9.57;;
73840;SDS011;62183;49.006;12.102;2022-11-06T06:29:21;12.70;;;6.50;;
73840;SDS011;62183;49.006;12.102;2022-11-06T06:31:46;21.17;;;7.47;;
73840;SDS011;62183;49.006;12.102;2022-11-06T06:34:11;65.83;;;10.57;;
73840;SDS011;62183;49.006;12.102;2022-11-06T06:36:36;21.67;;;7.97;;
73840;SDS011;62183;49.006;12.102;2022-11-06T06:39:02;20.50;;;7.17;;
73840;SDS011;62183;49.006;12.102;2022-11-06T06:41:27;25.73;;;8.00;;
73840;SDS011;62183;49.006;12.102;2022-11-06T06:43:52;44.37;;;9.93;;
73840;SDS011;62183;49.006;12.102;2022-11-06T06:46:17;35.17;;;8.87;;
73840;SDS011;62183;49.006;12.102;2022-11-06T06:48:42;20.73;;;7.73;;
73840;SDS011;62183;49.006;12.102;2022-11-06T06:51:08;31.13;;;9.20;;
73840;SDS011;62183;49.006;12.102;2022-11-06T06:53:33;23.37;;;7.90;;
73840;SDS011;62183;49.006;12.102;2022-11-06T06:55:59;22.40;;;8.65;;
73840;SDS011;62183;49.006;12.102;2022-11-06T06:58:24;20.08;;;7.63;;
73840;SDS011;62183;49.006;12.102;2022-11-06T07:00:50;19.58;;;8.40;;
73840;SDS011;62183;49.006;12.102;2022-11-06T07:03:15;30.97;;;10.60;;
73840;SDS011;62183;49.006;12.102;2022-11-06T07:05:40;27.40;;;8.03;;
73840;SDS011;62183;49.006;12.102;2022-11-06T07:08:05;25.90;;;8.30;;
73840;SDS011;62183;49.006;12.102;2022-11-06T07:10:31;23.47;;;7.87;;
73840;SDS011;62183;49.006;12.102;2022-11-06T07:12:59;30.57;;;9.17;;
73840;SDS011;62183;49.006;12.102;2022-11-06T07:15:24;24.13;;;9.10;;
73840;SDS011;62183;49.006;12.102;2022-11-06T07:17:49;26.13;;;9.00;;
73840;SDS011;62183;49.006;12.102;2022-11-06T07:20:15;27.13;;;9.40;;
73840;SDS011;62183;49.006;12.102;2022-11-06T07:22:40;23.73;;;8.90;;
73840;SDS011;62183;49.006;12.102;2022-11-06T07:25:05;26.50;;;9.03;;
73840;SDS011;62183;49.006;12.102;2022-11-06T07:27:30;22.23;;;8.43;;
73840;SDS011;62183;49.006;12.102;2022-11-06T07:29:56;25.93;;;9.30;;
73840;SDS011;62183;49.006;12.102;2022-11-06T07:32:21;29.43;;;10.57;;
73840;SDS011;62183;49.006;12.102;2022-11-06T07:34:46;24.97;;;9.57;;
73840;SDS011;62183;49.006;12.102;2022-11-06T07:37:11;33.40;;;9.97;;
73840;SDS011;62183;49.006;12.102;2022-11-06T07:39:36;23.50;;;10.17;;
73840;SDS011;62183;49.006;12.102;2022-11-06T07:42:01;28.47;;;10.53;;
73840;SDS011;62183;49.006;12.102;2022-11-06T07:44:27;20.95;;;9.80;;
73840;SDS011;62183;49.006;12.102;2022-11-06T07:46:52;22.20;;;9.17;;
73840;SDS011;62183;49.006;12.102;2022-11-06T07:49:17;23.07;;;10.17;;
73840;SDS011;62183;49.006;12.102;2022-11-06T07:51:42;21.37;;;10.10;;
73840;SDS011;62183;49.006;12.102;2022-11-06T07:54:09;22.13;;;9.48;;
73840;SDS011;62183;49.006;12.102;2022-11-06T07:56:34;18.77;;;9.23;;
73840;SDS011;62183;49.006;12.102;2022-11-06T07:58:59;18.47;;;9.40;;
73840;SDS011;62183;49.006;12.102;2022-11-06T08:01:24;21.10;;;10.10;;
73840;SDS011;62183;49.006;12.102;2022-11-06T08:03:50;25.10;;;11.07;;
73840;SDS011;62183;49.006;12.102;2022-11-06T08:06:15;15.63;;;8.37;;
73840;SDS011;62183;49.006;12.102;2022-11-06T08:08:40;23.77;;;12.10;;
73840;SDS011;62183;49.006;12.102;2022-11-06T08:11:06;18.53;;;10.47;;
73840;SDS011;62183;49.006;12.102;2022-11-06T08:13:32;21.50;;;8.80;;
73840;SDS011;62183;49.006;12.102;2022-11-06T08:15:57;23.30;;;9.25;;
73840;SDS011;62183;49.006;12.102;2022-11-06T08:18:22;30.60;;;11.07;;
73840;SDS011;62183;49.006;12.102;2022-11-06T08:20:48;23.43;;;10.07;;
73840;SDS011;62183;49.006;12.102;2022-11-06T08:23:16;22.80;;;9.50;;
73840;SDS011;62183;49.006;12.102;2022-11-06T08:25:41;28.27;;;11.13;;
73840;SDS011;62183;49.006;12.102;2022-11-06T08:28:06;31.90;;;10.27;;
73840;SDS011;62183;49.006;12.102;2022-11-06T08:30:31;24.17;;;12.17;;
73840;SDS011;62183;49.006;12.102;2022-11-06T08:33:05;25.43;;;14.63;;
73840;SDS011;62183;49.006;12.102;2022-11-06T08:35:32;19.70;;;8.98;;
73840;SDS011;62183;49.006;12.102;2022-11-06T08:37:58;24.88;;;10.80;;
73840;SDS011;62183;49.006;12.102;2022-11-06T08:40:23;19.17;;;9.03;;
73840;SDS011;62183;49.006;12.102;2022-11-06T08:42:48;20.80;;;9.63;;
73840;SDS011;62183;49.006;12.102;2022-11-06T08:45:13;21.20;;;10.47;;
73840;SDS011;62183;49.006;12.102;2022-11-06T08:47:39;25.55;;;11.70;;
73840;SDS011;62183;49.006;12.102;2022-11-06T08:50:04;24.93;;;12.23;;
73840;SDS011;62183;49.006;12.102;2022-11-06T08:52:29;22.40;;;10.18;;
73840;SDS011;62183;49.006;12.102;2022-11-06T08:54:54;18.67;;;9.48;;
73840;SDS011;62183;49.006;12.102;2022-11-06T08:57:20;22.77;;;10.33;;
73840;SDS011;62183;49.006;12.102;2022-11-06T08:59:45;21.20;;;10.57;;
73840;SDS011;62183;49.006;12.102;2022-11-06T09:02:13;19.57;;;10.50;;
73840;SDS011;62183;49.006;12.102;2022-11-06T09:04:38;22.95;;;11.80;;
73840;SDS011;62183;49.006;12.102;2022-11-06T09:07:04;22.00;;;10.23;;
73840;SDS011;62183;49.006;12.102;2022-11-06T09:09:29;22.63;;;12.00;;
73840;SDS011;62183;49.006;12.102;2022-11-06T09:11:54;26.53;;;11.83;;
73840;SDS011;62183;49.006;12.102;2022-11-06T09:14:19;26.70;;;13.27;;
73840;SDS011;62183;49.006;12.102;2022-11-06T09:16:44;21.67;;;12.53;;
73840;SDS011;62183;49.006;12.102;2022-11-06T09:19:09;29.63;;;15.83;;
73840;SDS011;62183;49.006;12.102;2022-11-06T09:21:35;24.90;;;12.90;;
73840;SDS011;62183;49.006;12.102;2022-11-06T09:24:00;23.87;;;12.17;;
73840;SDS011;62183;49.006;12.102;2022-11-06T09:26:25;24.60;;;12.50;;
73840;SDS011;62183;49.006;12.102;2022-11-06T09:28:50;24.70;;;11.83;;
73840;SDS011;62183;49.006;12.102;2022-11-06T09:31:15;19.57;;;10.50;;
73840;SDS011;62183;49.006;12.102;2022-11-06T09:33:41;20.07;;;9.83;;
73840;SDS011;62183;49.006;12.102;2022-11-06T09:36:06;18.27;;;10.33;;
73840;SDS011;62183;49.006;12.102;2022-11-06T09:38:31;18.58;;;9.45;;
73840;SDS011;62183;49.006;12.102;2022-11-06T09:40:58;16.33;;;9.18;;
73840;SDS011;62183;49.006;12.102;2022-11-06T09:48:40;17.90;;;9.95;;
73840;SDS011;62183;49.006;12.102;2022-11-06T09:51:15;14.48;;;8.55;;
73840;SDS011;62183;49.006;12.102;2022-11-06T09:53:44;14.18;;;8.18;;
73840;SDS011;62183;49.006;12.102;2022-11-06T09:56:11;13.32;;;7.95;;
73840;SDS011;62183;49.006;12.102;2022-11-06T09:58:37;13.70;;;7.85;;
73840;SDS011;62183;49.006;12.102;2022-11-06T10:01:23;13.98;;;8.90;;
73840;SDS011;62183;49.006;12.102;2022-11-06T10:03:53;17.35;;;9.13;;
73840;SDS011;62183;49.006;12.102;2022-11-06T10:06:19;15.38;;;8.93;;
73840;SDS011;62183;49.006;12.102;2022-11-06T10:08:45;16.20;;;9.10;;
73840;SDS011;62183;49.006;12.102;2022-11-06T10:18:55;13.00;;;7.82;;
73840;SDS011;62183;49.006;12.102;2022-11-06T10:21:40;16.58;;;9.40;;
73840;SDS011;62183;49.006;12.102;2022-11-06T10:24:19;15.45;;;8.38;;
73840;SDS011;62183;49.006;12.102;2022-11-06T10:26:47;13.82;;;8.45;;
73840;SDS011;62183;49.006;12.102;2022-11-06T10:36:54;17.30;;;9.70;;
73840;SDS011;62183;49.006;12.102;2022-11-06T10:39:22;16.60;;;9.98;;
73840;SDS011;62183;49.006;12.102;2022-11-06T10:41:50;15.77;;;9.80;;
73840;SDS011;62183;49.006;12.102;2022-11-06T10:44:35;17.98;;;9.60;;
73840;SDS011;62183;49.006;12.102;2022-11-06T10:49:52;18.15;;;10.75;;
73840;SDS011;62183;49.006;12.102;2022-11-06T10:57:14;16.52;;;8.98;;
73840;SDS011;62183;49.006;12.102;2022-11-06T10:59:43;16.10;;;8.70;;
73840;SDS011;62183;49.006;12.102;2022-11-06T11:02:28;14.48;;;9.52;;
73840;SDS011;62183;49.006;12.102;2022-11-06T11:04:55;14.18;;;8.77;;
73840;SDS011;62183;49.006;12.102;2022-11-06T11:07:20;18.27;;;9.27;;
73840;SDS011;62183;49.006;12.102;2022-11-06T11:09:45;17.00;;;9.55;;
73840;SDS011;62183;49.006;12.102;2022-11-06T11:12:24;20.33;;;10.57;;
73840;SDS011;62183;49.006;12.102;2022-11-06T11:17:28;17.27;;;9.73;;
73840;SDS011;62183;49.006;12.102;2022-11-06T11:19:53;15.33;;;9.23;;
73840;SDS011;62183;49.006;12.102;2022-11-06T11:22:19;18.13;;;10.10;;
73840;SDS011;62183;49.006;12.102;2022-11-06T11:27:43;13.70;;;8.63;;
73840;SDS011;62183;49.006;12.102;2022-11-06T11:30:19;14.45;;;8.65;;
73840;SDS011;62183;49.006;12.102;2022-11-06T11:32:44;13.23;;;8.60;;
73840;SDS011;62183;49.006;12.102;2022-11-06T11:35:09;15.77;;;8.87;;
73840;SDS011;62183;49.006;12.102;2022-11-06T11:37:35;14.60;;;8.02;;
73840;SDS011;62183;49.006;12.102;2022-11-06T11:42:43;14.80;;;8.85;;
73840;SDS011;62183;49.006;12.102;2022-11-06T11:47:37;12.33;;;7.47;;
73840;SDS011;62183;49.006;12.102;2022-11-06T11:52:41;13.77;;;8.55;;
73840;SDS011;62183;49.006;12.102;2022-11-06T11:55:16;11.32;;;7.75;;
73840;SDS011;62183;49.006;12.102;2022-11-06T11:57:45;10.65;;;7.40;;
73840;SDS011;62183;49.006;12.102;2022-11-06T12:00:18;11.65;;;7.35;;
73840;SDS011;62183;49.006;12.102;2022-11-06T12:05:16;13.98;;;8.93;;
73840;SDS011;62183;49.006;12.102;2022-11-06T12:07:52;12.02;;;8.48;;
73840;SDS011;62183;49.006;12.102;2022-11-06T12:12:52;11.43;;;7.95;;
73840;SDS011;62183;49.006;12.102;2022-11-06T12:18:04;12.30;;;8.15;;
73840;SDS011;62183;49.006;12.102;2022-11-06T12:20:35;12.43;;;8.38;;
73840;SDS011;62183;49.006;12.102;2022-11-06T12:23:02;11.15;;;7.90;;
73840;SDS011;62183;49.006;12.102;2022-11-06T12:25:29;12.57;;;8.15;;
73840;SDS011;62183;49.006;12.102;2022-11-06T12:27:58;13.25;;;8.52;;
73840;SDS011;62183;49.006;12.102;2022-11-06T12:30:23;12.77;;;9.63;;
73840;SDS011;62183;49.006;12.102;2022-11-06T12:35:27;16.58;;;10.40;;
73840;SDS011;62183;49.006;12.102;2022-11-06T12:38:09;11.02;;;7.68;;
73840;SDS011;62183;49.006;12.102;2022-11-06T12:40:39;10.80;;;7.22;;
73840;SDS011;62183;49.006;12.102;2022-11-06T12:48:12;12.55;;;7.82;;
73840;SDS011;62183;49.006;12.102;2022-11-06T12:50:43;10.65;;;7.78;;
73840;SDS011;62183;49.006;12.102;2022-11-06T12:58:54;11.50;;;7.88;;
73840;SDS011;62183;49.006;12.102;2022-11-06T13:01:34;12.10;;;7.78;;
73840;SDS011;62183;49.006;12.102;2022-11-06T13:04:27;9.88;;;7.22;;
73840;SDS011;62183;49.006;12.102;2022-11-06T13:06:56;12.40;;;8.32;;
73840;SDS011;62183;49.006;12.102;2022-11-06T13:09:45;8.52;;;7.10;;
73840;SDS011;62183;49.006;12.102;2022-11-06T13:12:14;11.88;;;8.50;;
73840;SDS011;62183;49.006;12.102;2022-11-06T13:17:18;10.88;;;7.72;;
73840;SDS011;62183;49.006;12.102;2022-11-06T13:19:53;11.55;;;8.02;;
73840;SDS011;62183;49.006;12.102;2022-11-06T13:22:25;10.32;;;8.13;;
73840;SDS011;62183;49.006;12.102;2022-11-06T13:30:12;10.43;;;7.68;;
73840;SDS011;62183;49.006;12.102;2022-11-06T13:32:38;11.23;;;7.53;;
73840;SDS011;62183;49.006;12.102;2022-11-06T13:35:04;9.32;;;6.32;;
73840;SDS011;62183;49.006;12.102;2022-11-06T13:40:00;9.77;;;7.63;;
73840;SDS011;62183;49.006;12.102;2022-11-06T13:42:35;12.70;;;8.52;;
73840;SDS011;62183;49.006;12.102;2022-11-06T13:45:01;8.93;;;6.72;;
73840;SDS011;62183;49.006;12.102;2022-11-06T13:50:33;10.00;;;6.97;;
73840;SDS011;62183;49.006;12.102;2022-11-06T14:06:19;11.25;;;7.68;;
73840;SDS011;62183;49.006;12.102;2022-11-06T14:08:52;10.75;;;7.47;;
73840;SDS011;62183;49.006;12.102;2022-11-06T14:19:31;11.70;;;7.03;;
73840;SDS011;62183;49.006;12.102;2022-11-06T14:24:34;13.35;;;7.97;;
73840;SDS011;62183;49.006;12.102;2022-11-06T14:27:00;10.35;;;7.50;;
73840;SDS011;62183;49.006;12.102;2022-11-06T14:32:03;10.43;;;7.47;;
73840;SDS011;62183;49.006;12.102;2022-11-06T14:34:30;10.23;;;7.05;;
73840;SDS011;62183;49.006;12.102;2022-11-06T14:36:56;12.77;;;7.55;;
73840;SDS011;62183;49.006;12.102;2022-11-06T14:42:05;10.18;;;6.82;;
73840;SDS011;62183;49.006;12.102;2022-11-06T14:44:40;10.23;;;6.97;;
73840;SDS011;62183;49.006;12.102;2022-11-06T14:47:07;11.32;;;7.93;;
73840;SDS011;62183;49.006;12.102;2022-11-06T14:49:37;9.60;;;6.28;;
73840;SDS011;62183;49.006;12.102;2022-11-06T14:52:05;10.00;;;7.20;;
73840;SDS011;62183;49.006;12.102;2022-11-06T14:54:30;8.88;;;6.72;;
73840;SDS011;62183;49.006;12.102;2022-11-06T14:56:57;10.40;;;6.65;;
73840;SDS011;62183;49.006;12.102;2022-11-06T14:59:30;12.18;;;7.20;;
73840;SDS011;62183;49.006;12.102;2022-11-06T15:02:01;11.43;;;7.53;;
73840;SDS011;62183;49.006;12.102;2022-11-06T15:04:28;11.32;;;8.13;;
73840;SDS011;62183;49.006;12.102;2022-11-06T15:06:54;11.25;;;6.65;;
73840;SDS011;62183;49.006;12.102;2022-11-06T15:12:02;11.10;;;7.15;;
73840;SDS011;62183;49.006;12.102;2022-11-06T15:17:05;12.07;;;7.70;;
73840;SDS011;62183;49.006;12.102;2022-11-06T15:19:38;13.48;;;9.38;;
73840;SDS011;62183;49.006;12.102;2022-11-06T15:24:37;12.90;;;8.85;;
73840;SDS011;62183;49.006;12.102;2022-11-06T15:27:03;11.85;;;8.95;;
73840;SDS011;62183;49.006;12.102;2022-11-06T15:29:33;14.50;;;8.02;;
73840;SDS011;62183;49.006;12.102;2022-11-06T15:32:11;11.60;;;7.50;;
73840;SDS011;62183;49.006;12.102;2022-11-06T15:34:37;10.88;;;7.60;;
73840;SDS011;62183;49.006;12.102;2022-11-06T15:39:32;10.65;;;8.60;;
73840;SDS011;62183;49.006;12.102;2022-11-06T15:42:04;13.85;;;8.85;;
73840;SDS011;62183;49.006;12.102;2022-11-06T15:44:30;10.85;;;7.40;;
73840;SDS011;62183;49.006;12.102;2022-11-06T15:46:56;12.03;;;8.80;;
73840;SDS011;62183;49.006;12.102;2022-11-06T15:49:22;12.45;;;9.18;;
73840;SDS011;62183;49.006;12.102;2022-11-06T15:51:52;12.35;;;9.27;;
73840;SDS011;62183;49.006;12.102;2022-11-06T15:54:37;14.77;;;9.55;;
73840;SDS011;62183;49.006;12.102;2022-11-06T15:57:22;14.98;;;9.43;;
73840;SDS011;62183;49.006;12.102;2022-11-06T15:59:48;12.45;;;9.43;;
73840;SDS011;62183;49.006;12.102;2022-11-06T16:02:17;15.20;;;9.60;;
73840;SDS011;62183;49.006;12.102;2022-11-06T16:04:43;16.23;;;10.43;;
73840;SDS011;62183;49.006;12.102;2022-11-06T16:07:09;14.52;;;10.30;;
73840;SDS011;62183;49.006;12.102;2022-11-06T16:09:35;13.85;;;10.02;;
73840;SDS011;62183;49.006;12.102;2022-11-06T16:12:00;13.00;;;9.07;;
73840;SDS011;62183;49.006;12.102;2022-11-06T16:14:26;18.90;;;11.90;;
73840;SDS011;62183;49.006;12.102;2022-11-06T16:16:54;16.67;;;11.80;;
73840;SDS011;62183;49.006;12.102;2022-11-06T16:19:33;16.60;;;11.27;;
73840;SDS011;62183;49.006;12.102;2022-11-06T16:24:24;14.80;;;10.67;;
73840;SDS011;62183;49.006;12.102;2022-11-06T16:26:51;15.88;;;10.35;;
73840;SDS011;62183;49.006;12.102;2022-11-06T16:29:18;12.73;;;9.55;;
73840;SDS011;62183;49.006;12.102;2022-11-06T16:31:44;13.82;;;9.45;;
73840;SDS011;62183;49.006;12.102;2022-11-06T16:34:20;15.73;;;9.57;;
73840;SDS011;62183;49.006;12.102;2022-11-06T16:36:57;12.02;;;8.88;;
73840;SDS011;62183;49.006;12.102;2022-11-06T16:42:28;14.32;;;9.07;;
73840;SDS011;62183;49.006;12.102;2022-11-06T16:44:46;16.40;;;10.70;;
73840;SDS011;62183;49.006;12.102;2022-11-06T16:47:13;18.05;;;11.93;;
73840;SDS011;62183;49.006;12.102;2022-11-06T16:49:43;18.77;;;12.52;;
73840;SDS011;62183;49.006;12.102;2022-11-06T16:55:31;19.92;;;12.88;;
73840;SDS011;62183;49.006;12.102;2022-11-06T16:57:33;18.45;;;12.38;;
73840;SDS011;62183;49.006;12.102;2022-11-06T17:00:44;22.70;;;13.05;;
73840;SDS011;62183;49.006;12.102;2022-11-06T17:02:54;16.30;;;11.13;;
73840;SDS011;62183;49.006;12.102;2022-11-06T17:05:22;20.02;;;12.00;;
73840;SDS011;62183;49.006;12.102;2022-11-06T17:07:47;15.88;;;9.55;;